Time;durP1;ratioP1;P1;durP2;ratioP2;P2;SDS_P1;SDS_P2;PMS_P1;PMS_P2;Temp;Humidity;BMP_temperature;BMP_pressure;BME280_temperature;BME280_humidity;BME280_pressure;Samples;Min_cycle;Max_cycle;Signal;HPM_P1;HPM_P2
2022/08/24 00:02:18;;;;;;;;;;;;;;;20.70;99.46;101657.50;5018120;28;19909;-45
2022/08/24 00:04:43;;;;;;;;;;;;;;;20.65;97.87;101655.41;5017939;28;19925;-45
2022/08/24 00:07:08;;;;;;;;;;;;;;;20.64;97.75;101658.34;5017574;28;19920;-45
2022/08/24 00:09:33;;;;;;;;;;;;;;;20.56;100.00;101644.97;5018364;28;20426;-44
2022/08/24 00:11:59;;;;;;;;;;;;;;;20.42;100.00;101655.78;5018125;28;19909;-44
2022/08/24 00:14:24;;;;;;;;;;;;;;;20.38;99.78;101659.13;5017689;28;19939;-47
2022/08/24 00:16:49;;;;;;;;;;;;;;;20.39;98.98;101672.47;5018493;28;19916;-46
2022/08/24 00:19:15;;;;;;;;;;;;;;;20.41;98.28;101669.56;5018534;28;19909;-45
2022/08/24 00:21:40;;;;;;;;;;;;;;;20.44;98.60;101664.56;5017940;28;20166;-48
2022/08/24 00:24:05;;;;;;;;;;;;;;;20.47;98.47;101660.59;5017484;28;19912;-47
2022/08/24 00:26:30;;;;;;;;;;;;;;;20.42;100.00;101663.09;5015387;28;19913;-46
2022/08/24 00:28:57;;;;;;;;;;;;;;;20.44;98.24;101664.56;5018670;28;19928;-47
2022/08/24 00:31:22;;;;;;;;;;;;;;;20.44;99.01;101669.97;5016847;28;19920;-46
2022/08/24 00:33:47;;;;;;;;;;;;;;;20.43;100.00;101673.72;5018435;28;19909;-45
2022/08/24 00:36:13;;;;;;;;;;;;;;;20.40;100.00;101670.59;5017078;28;19992;-45
2022/08/24 00:38:38;;;;;;;;;;;;;;;20.39;100.00;101672.47;5018208;28;20055;-44
2022/08/24 00:41:04;;;;;;;;;;;;;;;20.37;99.68;101677.28;5016294;28;20275;-45
2022/08/24 00:43:29;;;;;;;;;;;;;;;20.33;98.47;101678.72;5018138;28;20036;-45
2022/08/24 00:45:57;;;;;;;;;;;;;;;20.32;99.10;101674.34;5016317;28;19972;-45
2022/08/24 00:48:26;;;;;;;;;;;;;;;20.31;98.89;101676.25;5017680;28;19943;-47
2022/08/24 00:50:59;;;;;;;;;;;;;;;20.31;98.30;101681.66;5017639;28;19921;-48
2022/08/24 00:53:26;;;;;;;;;;;;;;;20.30;98.61;101677.28;5016656;28;20175;-47
2022/08/24 00:55:54;;;;;;;;;;;;;;;20.30;98.14;101684.59;5016512;28;20280;-45
2022/08/24 00:58:28;;;;;;;;;;;;;;;20.31;98.27;101675.38;5017005;28;19909;-45
2022/08/24 01:00:56;;;;;;;;;;;;;;;20.29;98.06;101677.47;5017261;28;20388;-46
2022/08/24 01:03:21;;;;;;;;;;;;;;;20.25;98.74;101681.66;5016953;28;20312;-46
2022/08/24 01:05:47;;;;;;;;;;;;;;;20.22;98.99;101690.19;5017530;28;19909;-48
2022/08/24 01:08:13;;;;;;;;;;;;;;;20.19;99.44;101679.75;5016824;28;20372;-48
2022/08/24 01:10:40;;;;;;;;;;;;;;;20.20;100.00;101676.00;5017002;28;19917;-45
2022/08/24 01:13:06;;;;;;;;;;;;;;;20.20;99.69;101673.28;5016788;28;20018;-45
2022/08/24 01:15:34;;;;;;;;;;;;;;;20.19;100.00;101675.16;5015899;28;19948;-47
2022/08/24 01:20:46;;;;;;;;;;;;;;;20.14;100.00;101669.50;5017905;28;19916;-46
2022/08/24 01:23:26;;;;;;;;;;;;;;;20.07;99.98;101668.66;5016769;28;20304;-45
2022/08/24 01:25:52;;;;;;;;;;;;;;;20.04;100.00;101672.59;5016239;28;19963;-45
2022/08/24 01:28:19;;;;;;;;;;;;;;;19.95;100.00;101679.25;5016757;28;19917;-46
2022/08/24 01:30:44;;;;;;;;;;;;;;;19.92;100.00;101671.53;5016528;28;20338;-47
2022/08/24 01:33:20;;;;;;;;;;;;;;;19.91;100.00;101678.81;5016944;28;19992;-48
2022/08/24 01:35:45;;;;;;;;;;;;;;;19.91;100.00;101667.16;5016915;28;19952;-47
2022/08/24 01:38:11;;;;;;;;;;;;;;;19.92;100.00;101668.81;5016742;28;20401;-50
2022/08/24 01:40:38;;;;;;;;;;;;;;;19.93;100.00;101659.66;5015056;28;19952;-46
2022/08/24 01:43:05;;;;;;;;;;;;;;;19.92;100.00;101657.97;5016283;28;19909;-47
2022/08/24 01:45:30;;;;;;;;;;;;;;;19.87;100.00;101661.28;5016025;28;19913;-46
2022/08/24 01:47:57;;;;;;;;;;;;;;;19.88;100.00;101656.72;5016731;28;19913;-46
2022/08/24 01:50:22;;;;;;;;;;;;;;;19.90;100.00;101663.59;5016049;28;19997;-47
2022/08/24 01:52:48;;;;;;;;;;;;;;;19.90;100.00;101660.88;5015866;28;20003;-49
2022/08/24 01:55:15;;;;;;;;;;;;;;;19.89;100.00;101661.06;5016304;28;20004;-47
2022/08/24 01:57:40;;;;;;;;;;;;;;;19.84;100.00;101655.44;5015249;28;20400;-48
2022/08/24 02:00:07;;;;;;;;;;;;;;;19.77;100.00;101660.00;5015715;28;19913;-45
2022/08/24 02:02:32;;;;;;;;;;;;;;;19.72;100.00;101666.84;5016539;28;20788;-46
2022/08/24 02:04:57;;;;;;;;;;;;;;;19.70;100.00;101668.88;5015661;28;19924;-45
2022/08/24 02:07:23;;;;;;;;;;;;;;;19.63;100.00;101656.34;5016156;28;19917;-46
2022/08/24 02:09:48;;;;;;;;;;;;;;;19.63;100.00;101656.34;5015272;28;19920;-45
2022/08/24 02:12:14;;;;;;;;;;;;;;;19.62;100.00;101654.69;5014736;28;19909;-45
2022/08/24 02:14:39;;;;;;;;;;;;;;;19.60;100.00;101657.59;5015454;28;19909;-47
2022/08/24 02:17:05;;;;;;;;;;;;;;;19.58;100.00;101662.38;5015432;28;19912;-44
2022/08/24 02:19:31;;;;;;;;;;;;;;;19.58;100.00;101656.97;5016269;28;20149;-48
2022/08/24 02:21:56;;;;;;;;;;;;;;;19.60;100.00;101665.72;5015495;28;19901;-45
2022/08/24 02:24:21;;;;;;;;;;;;;;;19.59;100.00;101658.63;5015974;28;19971;-47
2022/08/24 02:26:48;;;;;;;;;;;;;;;19.45;100.00;101670.44;5014662;28;19913;-45
2022/08/24 02:29:13;;;;;;;;;;;;;;;19.35;100.00;101678.94;5015958;28;19944;-49
2022/08/24 02:31:38;;;;;;;;;;;;;;;19.29;100.00;101680.56;5015202;28;19960;-48
2022/08/24 02:34:04;;;;;;;;;;;;;;;19.25;100.00;101682.00;5015976;28;20417;-45
2022/08/24 02:36:30;;;;;;;;;;;;;;;19.26;100.00;101691.78;5013008;28;19921;-46
2022/08/24 02:38:55;;;;;;;;;;;;;;;19.25;100.00;101675.75;5014617;28;19901;-45
2022/08/24 02:41:22;;;;;;;;;;;;;;;19.32;100.00;101682.88;5014353;28;20193;-44
2022/08/24 02:43:47;;;;;;;;;;;;;;;19.34;100.00;101688.09;5014555;28;19921;-43
2022/08/24 02:46:20;;;;;;;;;;;;;;;19.30;100.00;101679.53;5014571;28;19909;-43
2022/08/24 02:48:45;;;;;;;;;;;;;;;19.26;100.00;101678.22;5016044;28;19921;-44
2022/08/24 02:51:37;;;;;;;;;;;;;;;19.25;100.00;101679.28;5014506;28;19954;-46
2022/08/24 02:54:04;;;;;;;;;;;;;;;19.25;100.00;101682.00;5013727;28;19917;-45
2022/08/24 02:56:30;;;;;;;;;;;;;;;19.26;100.00;101678.22;5014850;28;19909;-43
2022/08/24 02:58:55;;;;;;;;;;;;;;;19.26;100.00;101680.94;5015432;28;20293;-49
2022/08/24 03:01:21;;;;;;;;;;;;;;;19.23;100.00;101672.38;5014719;28;20336;-47
2022/08/24 03:03:46;;;;;;;;;;;;;;;19.21;100.00;101680.69;5015934;28;20403;-49
2022/08/24 03:06:11;;;;;;;;;;;;;;;19.20;100.00;101679.03;5013478;28;19913;-49
2022/08/24 03:08:37;;;;;;;;;;;;;;;19.17;100.00;101684.84;5015817;28;20359;-47
2022/08/24 03:11:03;;;;;;;;;;;;;;;19.15;100.00;101682.34;5014545;28;20231;-46
2022/08/24 03:13:29;;;;;;;;;;;;;;;19.11;100.00;101678.38;5015654;28;20364;-47
2022/08/24 03:15:54;;;;;;;;;;;;;;;19.08;100.00;101675.22;5014232;28;20296;-48
2022/08/24 03:18:20;;;;;;;;;;;;;;;19.06;100.00;101666.44;5013726;28;19909;-45
2022/08/24 03:20:45;;;;;;;;;;;;;;;19.00;100.00;101668.91;5014952;28;20258;-46
2022/08/24 03:23:10;;;;;;;;;;;;;;;18.96;100.00;101672.22;5014975;28;20069;-45
2022/08/24 03:25:36;;;;;;;;;;;;;;;18.93;100.00;101669.91;5011464;28;19913;-43
2022/08/24 03:28:01;;;;;;;;;;;;;;;18.88;100.00;101666.94;5015254;28;20314;-47
2022/08/24 03:30:26;;;;;;;;;;;;;;;18.83;100.00;101668.34;5014326;28;19983;-45
2022/08/24 03:32:52;;;;;;;;;;;;;;;18.79;100.00;101674.34;5014938;28;19913;-47
2022/08/24 03:35:17;;;;;;;;;;;;;;;18.75;100.00;101679.28;5015343;28;19959;-48
2022/08/24 03:37:42;;;;;;;;;;;;;;;18.72;100.00;101673.41;5015479;28;19916;-47
2022/08/24 03:40:09;;;;;;;;;;;;;;;18.70;100.00;101672.78;5013889;28;19920;-46
2022/08/24 03:42:34;;;;;;;;;;;;;;;18.66;100.00;101668.81;5014626;28;20006;-43
2022/08/24 03:44:59;;;;;;;;;;;;;;;18.64;100.00;101675.22;5013998;28;19995;-48
2022/08/24 03:47:24;;;;;;;;;;;;;;;18.62;100.00;101671.06;5014591;28;19924;-45
2022/08/24 03:49:50;;;;;;;;;;;;;;;18.62;100.00;101676.47;5014402;28;20016;-48
2022/08/24 03:52:16;;;;;;;;;;;;;;;18.57;100.00;101679.75;5015265;28;19962;-46
2022/08/24 03:54:41;;;;;;;;;;;;;;;18.40;100.00;101681.06;5014011;28;19944;-45
2022/08/24 03:57:06;;;;;;;;;;;;;;;18.24;100.00;101679.41;5014263;28;20315;-47
2022/08/24 03:59:31;;;;;;;;;;;;;;;18.12;100.00;101679.06;5015266;28;20074;-46
2022/08/24 04:01:56;;;;;;;;;;;;;;;18.11;100.00;101668.44;5013005;28;20363;-47
2022/08/24 04:04:22;;;;;;;;;;;;;;;18.13;100.00;101672.66;5045513;28;19920;-44
2022/08/24 04:06:47;;;;;;;;;;;;;;;18.16;100.00;101679.53;5014802;28;19913;-48
2022/08/24 04:09:13;;;;;;;;;;;;;;;18.17;100.00;101673.94;5013937;28;19909;-43
2022/08/24 04:11:38;;;;;;;;;;;;;;;18.22;100.00;101676.91;5014956;28;19913;-48
2022/08/24 04:14:04;;;;;;;;;;;;;;;18.25;100.00;101679.22;5014712;28;19920;-46
2022/08/24 04:16:29;;;;;;;;;;;;;;;18.29;100.00;101684.25;5016211;28;19909;-48
2022/08/24 04:18:57;;;;;;;;;;;;;;;18.30;100.00;101681.34;5018347;28;19959;-45
2022/08/24 04:21:24;;;;;;;;;;;;;;;18.30;100.00;101680.53;5017386;28;19916;-47
2022/08/24 04:23:51;;;;;;;;;;;;;;;18.31;100.00;101684.88;5018064;28;20287;-44
2022/08/24 04:26:16;;;;;;;;;;;;;;;18.35;100.00;101688.91;5016823;28;20012;-48
2022/08/24 04:28:42;;;;;;;;;;;;;;;18.40;100.00;101692.69;5018066;28;20381;-47
2022/08/24 04:31:07;;;;;;;;;;;;;;;18.44;100.00;101691.28;5017612;28;19924;-48
2022/08/24 04:33:33;;;;;;;;;;;;;;;18.46;100.00;101696.50;5018521;28;19999;-48
2022/08/24 04:35:58;;;;;;;;;;;;;;;18.47;100.00;101689.25;5018105;28;19912;-45
2022/08/24 04:38:24;;;;;;;;;;;;;;;18.50;100.00;101692.38;5017958;28;20059;-47
2022/08/24 04:40:49;;;;;;;;;;;;;;;18.51;100.00;101690.50;5015766;28;19953;-45
2022/08/24 04:43:14;;;;;;;;;;;;;;;18.52;100.00;101698.44;5018141;28;19912;-45
2022/08/24 04:45:41;;;;;;;;;;;;;;;18.50;100.00;101692.38;5016477;28;19923;-48
2022/08/24 04:48:06;;;;;;;;;;;;;;;18.47;100.00;101700.06;5017731;28;19917;-45
2022/08/24 04:50:36;;;;;;;;;;;;;;;18.39;100.00;101698.28;5017083;28;20277;-46
2022/08/24 04:53:04;;;;;;;;;;;;;;;18.33;100.00;101690.94;5018581;28;19913;-46
2022/08/24 04:55:29;;;;;;;;;;;;;;;18.33;100.00;101694.50;5016670;28;19985;-46
2022/08/24 04:57:54;;;;;;;;;;;;;;;18.35;100.00;101697.84;5016183;28;19909;-44
2022/08/24 05:00:19;;;;;;;;;;;;;;;18.36;100.00;101691.38;5015246;28;19917;-43
2022/08/24 05:02:45;;;;;;;;;;;;;;;18.37;100.00;101705.78;5017985;28;19916;-44
2022/08/24 05:05:10;;;;;;;;;;;;;;;18.40;100.00;101705.41;5017016;28;20031;-45
2022/08/24 05:07:35;;;;;;;;;;;;;;;18.43;100.00;101705.84;5016086;28;20331;-46
2022/08/24 05:10:01;;;;;;;;;;;;;;;18.42;100.00;101704.16;5016068;28;19913;-45
2022/08/24 05:12:26;;;;;;;;;;;;;;;18.47;100.00;101705.47;5016754;28;20201;-45
2022/08/24 05:14:52;;;;;;;;;;;;;;;18.51;100.00;101709.44;5017509;28;19912;-41
2022/08/24 05:17:17;;;;;;;;;;;;;;;18.54;100.00;101707.19;5013704;28;20406;-44
2022/08/24 05:19:42;;;;;;;;;;;;;;;18.58;100.00;101713.88;5015332;28;19921;-42
2022/08/24 05:22:07;;;;;;;;;;;;;;;18.62;100.00;101706.25;5017019;28;19913;-42
2022/08/24 05:24:32;;;;;;;;;;;;;;;18.66;100.00;101712.94;5016171;28;20176;-43
2022/08/24 05:26:59;;;;;;;;;;;;;;;18.71;100.00;101710.47;5016607;28;19913;-47
2022/08/24 05:29:24;;;;;;;;;;;;;;;18.74;100.00;101709.25;5026782;28;20377;-42
2022/08/24 05:31:49;;;;;;;;;;;;;;;18.78;100.00;101715.94;5032305;28;19940;-42
2022/08/24 05:34:14;;;;;;;;;;;;;;;18.80;100.00;101716.59;5022529;28;19956;-42
2022/08/24 05:36:41;;;;;;;;;;;;;;;18.77;100.00;101715.13;5035395;28;19917;-46
2022/08/24 05:39:08;;;;;;;;;;;;;;;18.72;100.00;101727.53;5034826;28;20364;-44
2022/08/24 05:41:33;;;;;;;;;;;;;;;18.67;100.00;101714.63;5034046;28;19917;-46
2022/08/24 05:43:59;;;;;;;;;;;;;;;18.67;100.00;101722.72;5028545;28;20367;-45
2022/08/24 05:46:24;;;;;;;;;;;;;;;18.69;100.00;101722.53;5014943;28;20026;-43
2022/08/24 05:48:49;;;;;;;;;;;;;;;18.73;100.00;101721.94;5016213;28;19916;-43
2022/08/24 05:51:15;;;;;;;;;;;;;;;18.79;100.00;101720.34;5029140;28;19909;-42
2022/08/24 05:53:40;;;;;;;;;;;;;;;18.82;100.00;101719.94;5036496;28;20422;-44
2022/08/24 05:56:07;;;;;;;;;;;;;;;18.81;100.00;101724.50;5034984;28;19908;-45
2022/08/24 05:58:32;;;;;;;;;;;;;;;18.79;100.00;101721.16;5036936;28;20527;-45
2022/08/24 06:00:58;;;;;;;;;;;;;;;18.84;100.00;101717.91;5066704;28;19959;-44
2022/08/24 06:03:24;;;;;;;;;;;;;;;18.91;100.00;101720.69;5034085;28;19974;-47
2022/08/24 06:05:49;;;;;;;;;;;;;;;18.97;100.00;101728.84;5035598;28;19921;-45
2022/08/24 06:08:14;;;;;;;;;;;;;;;19.05;100.00;101732.47;5036690;28;19912;-47
2022/08/24 06:10:41;;;;;;;;;;;;;;;19.12;100.00;101727.94;5034967;28;19909;-45
2022/08/24 06:13:07;;;;;;;;;;;;;;;19.16;100.00;101735.47;5035689;28;19909;-47
2022/08/24 06:15:33;;;;;;;;;;;;;;;19.26;100.00;101731.56;5035805;28;20109;-43
2022/08/24 06:17:58;;;;;;;;;;;;;;;19.33;100.00;101733.31;5036605;28;19913;-46
2022/08/24 06:20:24;;;;;;;;;;;;;;;19.43;100.00;101734.81;5034644;28;19919;-43
2022/08/24 06:22:49;;;;;;;;;;;;;;;19.49;100.00;101734.88;5035338;28;20363;-44
2022/08/24 06:27:58;;;;;;;;;;;;;;;19.65;100.00;101735.56;5018471;28;20015;-45
2022/08/24 06:30:24;;;;;;;;;;;;;;;19.75;100.00;101746.94;5014240;28;19913;-44
2022/08/24 06:32:49;;;;;;;;;;;;;;;19.83;100.00;101745.94;5013856;28;19917;-45
2022/08/24 06:35:14;;;;;;;;;;;;;;;19.94;100.00;101739.94;5016720;28;20116;-46
2022/08/24 06:37:40;;;;;;;;;;;;;;;20.07;100.00;101752.72;5027185;28;19912;-43
2022/08/24 06:40:06;;;;;;;;;;;;;;;20.17;100.00;101758.59;5014104;28;19909;-47
2022/08/24 06:42:33;;;;;;;;;;;;;;;20.29;100.00;101761.56;5015536;28;19916;-46
2022/08/24 06:44:58;;;;;;;;;;;;;;;20.41;100.00;101764.53;5013790;28;19915;-45
2022/08/24 06:47:23;;;;;;;;;;;;;;;20.52;100.00;101758.53;5014537;28;20482;-48
2022/08/24 06:49:48;;;;;;;;;;;;;;;20.64;100.00;101753.34;5015486;28;19913;-46
2022/08/24 06:52:14;;;;;;;;;;;;;;;20.78;100.00;101751.50;5015577;28;19909;-45
2022/08/24 06:54:39;;;;;;;;;;;;;;;20.91;100.00;101751.50;5013262;28;19959;-48
2022/08/24 06:57:05;;;;;;;;;;;;;;;21.03;100.00;101755.28;5014256;28;20012;-44
2022/08/24 06:59:31;;;;;;;;;;;;;;;21.18;100.00;101756.94;5015491;28;20364;-48
2022/08/24 07:01:56;;;;;;;;;;;;;;;21.31;100.00;101758.81;5015000;28;19909;-46
2022/08/24 07:04:23;;;;;;;;;;;;;;;21.49;100.00;101767.19;5014666;28;19917;-49
2022/08/24 07:06:49;;;;;;;;;;;;;;;21.63;100.00;101767.16;5013719;28;19945;-45
2022/08/24 07:09:15;;;;;;;;;;;;;;;21.76;100.00;101773.41;5014158;28;20388;-46
2022/08/24 07:11:40;;;;;;;;;;;;;;;21.91;100.00;101777.75;5015000;28;19953;-44
2022/08/24 07:14:05;;;;;;;;;;;;;;;22.08;100.00;101776.25;5024761;28;19963;-44
2022/08/24 07:16:31;;;;;;;;;;;;;;;22.21;100.00;101769.06;5020716;28;19917;-45
2022/08/24 07:18:56;;;;;;;;;;;;;;;22.37;100.00;101771.34;5020241;28;19944;-46
2022/08/24 07:21:21;;;;;;;;;;;;;;;22.54;100.00;101777.94;5019929;28;20391;-46
2022/08/24 07:23:47;;;;;;;;;;;;;;;22.79;100.00;101776.31;5019440;28;19909;-45
2022/08/24 07:26:15;;;;;;;;;;;;;;;22.96;100.00;101782.06;5018395;28;20086;-44
2022/08/24 07:28:40;;;;;;;;;;;;;;;23.16;100.00;101777.31;5019169;28;19921;-48
2022/08/24 07:31:08;;;;;;;;;;;;;;;23.35;100.00;101777.38;5022123;28;19978;-46
2022/08/24 07:33:33;;;;;;;;;;;;;;;23.54;100.00;101775.50;5019141;28;20328;-46
2022/08/24 07:35:58;;;;;;;;;;;;;;;23.73;100.00;101776.38;5020639;28;19909;-44
2022/08/24 07:38:24;;;;;;;;;;;;;;;23.88;100.00;101771.41;5015047;28;20008;-44
2022/08/24 07:40:49;;;;;;;;;;;;;;;24.01;100.00;101773.13;5014899;28;20011;-45
2022/08/24 07:43:14;;;;;;;;;;;;;;;24.15;100.00;101769.19;5015040;28;19913;-45
2022/08/24 07:45:40;;;;;;;;;;;;;;;24.33;100.00;101773.78;5017259;28;19909;-48
2022/08/24 07:48:06;;;;;;;;;;;;;;;24.48;100.00;101776.09;5020935;28;20228;-44
2022/08/24 07:50:31;;;;;;;;;;;;;;;24.61;100.00;101764.19;5018497;28;19917;-48
2022/08/24 07:52:56;;;;;;;;;;;;;;;24.76;100.00;101777.41;5025821;28;19935;-46
2022/08/24 07:55:21;;;;;;;;;;;;;;;24.88;99.39;101771.97;5020114;28;20438;-44
2022/08/24 07:57:47;;;;;;;;;;;;;;;24.94;97.69;101768.31;5020723;28;20603;-45
2022/08/24 08:00:13;;;;;;;;;;;;;;;25.02;98.22;101772.59;5029513;28;19911;-48
2022/08/24 08:02:45;;;;;;;;;;;;;;;25.11;96.12;101768.44;5024910;28;19913;-43
2022/08/24 08:05:10;;;;;;;;;;;;;;;25.22;96.25;101770.38;5024446;28;20016;-43
2022/08/24 08:07:36;;;;;;;;;;;;;;;25.36;94.70;101772.88;5021490;28;20149;-47
2022/08/24 08:10:02;;;;;;;;;;;;;;;25.44;93.05;101772.53;5020481;28;20283;-46
2022/08/24 08:12:27;;;;;;;;;;;;;;;25.54;92.96;101770.00;5023436;28;19955;-43
2022/08/24 08:14:52;;;;;;;;;;;;;;;25.70;93.27;101776.69;5019248;28;19912;-46
2022/08/24 08:17:17;;;;;;;;;;;;;;;25.84;93.18;101783.53;5018172;28;19909;-42
2022/08/24 08:19:42;;;;;;;;;;;;;;;25.98;92.55;101781.41;5015785;28;19935;-44
2022/08/24 08:24:52;;;;;;;;;;;;;;;26.22;90.62;101784.06;5017199;28;19976;-43
2022/08/24 08:27:19;;;;;;;;;;;;;;;26.30;83.84;101783.69;5016919;28;20007;-44
2022/08/24 08:29:44;;;;;;;;;;;;;;;26.40;86.38;101788.53;5019731;28;20343;-48
2022/08/24 08:32:13;;;;;;;;;;;;;;;26.47;88.39;101785.66;5016872;28;19920;-45
2022/08/24 08:34:38;;;;;;;;;;;;;;;26.55;88.51;101780.63;5019911;28;19920;-44
2022/08/24 08:37:04;;;;;;;;;;;;;;;26.57;87.65;101780.38;5022613;28;19917;-45
2022/08/24 08:39:30;;;;;;;;;;;;;;;26.58;87.19;101785.59;5018343;28;20339;-45
2022/08/24 08:42:20;;;;;;;;;;;;;;;26.70;87.67;101784.75;5017555;28;20474;-48
2022/08/24 08:44:57;;;;;;;;;;;;;;;26.91;83.50;101794.16;5017188;28;19913;-43
2022/08/24 08:47:42;;;;;;;;;;;;;;;27.02;83.28;101784.19;5016342;28;20012;-45
2022/08/24 08:50:18;;;;;;;;;;;;;;;27.15;85.61;101792.09;5016962;28;19955;-45
2022/08/24 08:53:02;;;;;;;;;;;;;;;27.32;84.07;101792.94;5017764;28;19916;-43
2022/08/24 08:55:37;;;;;;;;;;;;;;;27.53;81.38;101790.53;5020499;28;20469;-46
2022/08/24 08:58:21;;;;;;;;;;;;;;;27.65;74.29;101787.66;5024223;28;19940;-47
2022/08/24 09:01:09;;;;;;;;;;;;;;;27.74;80.81;101794.38;5023227;28;20544;-44
2022/08/24 09:03:38;;;;;;;;;;;;;;;28.00;80.36;101792.00;5019956;28;19973;-47
2022/08/24 09:06:26;;;;;;;;;;;;;;;28.14;75.66;101796.03;5016127;28;19909;-48
2022/08/24 09:09:10;;;;;;;;;;;;;;;28.32;73.26;101788.53;5016649;28;19990;-46
2022/08/24 09:11:53;;;;;;;;;;;;;;;28.39;75.72;101798.22;5020128;28;20007;-48
2022/08/24 09:14:30;;;;;;;;;;;;;;;28.47;74.95;101794.19;5017596;28;20286;-45
2022/08/24 09:17:12;;;;;;;;;;;;;;;28.64;76.28;101802.34;5023744;28;19944;-45
2022/08/24 09:19:52;;;;;;;;;;;;;;;28.82;75.94;101795.66;5029370;28;19919;-44
2022/08/24 09:22:19;;;;;;;;;;;;;;;29.07;73.53;101791.47;5036758;28;20256;-45
2022/08/24 09:24:53;;;;;;;;;;;;;;;29.30;75.01;101795.81;5035206;28;20317;-46
2022/08/24 09:27:42;;;;;;;;;;;;;;;29.34;73.69;101791.41;5029431;28;20346;-49
2022/08/24 09:30:10;;;;;;;;;;;;;;;29.42;70.46;101790.09;5028479;28;20335;-45
2022/08/24 09:32:36;;;;;;;;;;;;;;;29.47;72.11;101793.72;5019165;28;19958;-46
2022/08/24 09:35:03;;;;;;;;;;;;;;;29.56;72.45;101794.03;5029800;28;19916;-45
2022/08/24 09:37:29;;;;;;;;;;;;;;;29.63;71.39;101794.63;5033436;28;20331;-48
2022/08/24 09:39:54;;;;;;;;;;;;;;;29.65;70.77;101795.22;5036252;28;19966;-50
2022/08/24 09:42:22;;;;;;;;;;;;;;;29.64;70.02;101782.53;5036096;28;19908;-45
2022/08/24 09:44:53;;;;;;;;;;;;;;;29.62;70.65;101792.13;5037210;28;19909;-47
2022/08/24 09:47:21;;;;;;;;;;;;;;;29.58;71.68;101797.34;5034491;28;19919;-44
2022/08/24 09:49:47;;;;;;;;;;;;;;;29.48;68.35;101792.63;5036347;28;20356;-48
2022/08/24 09:52:30;;;;;;;;;;;;;;;29.44;71.29;101794.25;5025300;28;19912;-49
2022/08/24 09:54:56;;;;;;;;;;;;;;;29.44;65.34;101798.91;5015636;28;19959;-47
2022/08/24 09:57:34;;;;;;;;;;;;;;;29.34;70.75;101789.50;5015910;28;20237;-54
2022/08/24 10:00:14;;;;;;;;;;;;;;;29.43;71.65;101792.59;5047986;28;19913;-54
2022/08/24 10:02:58;;;;;;;;;;;;;;;29.60;71.15;101795.19;5017011;28;19909;-49
2022/08/24 10:05:23;;;;;;;;;;;;;;;29.78;68.56;101793.09;5015265;28;19928;-48
2022/08/24 10:07:54;;;;;;;;;;;;;;;29.95;69.73;101796.47;5015932;28;19988;-46
2022/08/24 10:10:26;;;;;;;;;;;;;;;30.10;59.60;101785.50;5014780;28;20342;-45
2022/08/24 10:12:52;;;;;;;;;;;;;;;30.17;67.14;101790.78;5015653;28;19913;-47
2022/08/24 10:15:17;;;;;;;;;;;;;;;30.12;62.64;101788.81;5014804;28;20016;-47
2022/08/24 10:18:01;;;;;;;;;;;;;;;30.09;66.24;101783.88;5016432;28;19967;-49
2022/08/24 10:20:39;;;;;;;;;;;;;;;30.25;65.17;101781.16;5014709;28;20088;-47
2022/08/24 10:23:16;;;;;;;;;;;;;;;30.42;63.63;101778.19;5015853;28;19909;-44
2022/08/24 10:25:47;;;;;;;;;;;;;;;30.46;60.90;101773.78;5016223;28;20015;-49
2022/08/24 10:28:32;;;;;;;;;;;;;;;30.54;63.11;101772.44;5015118;28;19968;-49
2022/08/24 10:31:02;;;;;;;;;;;;;;;30.71;61.98;101770.25;5015286;28;20320;-47
2022/08/24 10:33:36;;;;;;;;;;;;;;;30.83;59.30;101776.31;5015780;28;19940;-48
2022/08/24 10:36:14;;;;;;;;;;;;;;;30.91;58.57;101774.94;5047623;28;20404;-48
2022/08/24 10:42:04;;;;;;;;;;;;;;;30.71;61.38;101769.41;5014656;28;19920;-50
2022/08/24 10:44:55;;;;;;;;;;;;;;;30.92;58.51;101765.53;5015089;28;19955;-47
2022/08/24 10:47:22;;;;;;;;;;;;;;;31.09;57.59;101770.81;5014786;28;19995;-45
2022/08/24 10:49:53;;;;;;;;;;;;;;;31.21;58.24;101774.13;5015269;28;20090;-46
2022/08/24 10:52:27;;;;;;;;;;;;;;;31.11;53.06;101774.13;5015103;28;19913;-46
2022/08/24 10:54:52;;;;;;;;;;;;;;;30.73;50.98;101769.97;5014868;28;19909;-48
2022/08/24 10:57:27;;;;;;;;;;;;;;;30.41;54.80;101776.53;5015090;28;19916;-48
2022/08/24 11:00:05;;;;;;;;;;;;;;;30.11;50.98;101772.59;5046363;28;19909;-48
2022/08/24 11:02:32;;;;;;;;;;;;;;;29.85;51.75;101763.38;5013867;28;20027;-44
2022/08/24 11:05:04;;;;;;;;;;;;;;;29.68;55.55;101763.53;5015103;28;19921;-46
2022/08/24 11:07:29;;;;;;;;;;;;;;;29.69;57.48;101770.72;5015735;28;19921;-50
2022/08/24 11:10:00;;;;;;;;;;;;;;;29.72;56.25;101773.75;5013137;28;19909;-46
2022/08/24 11:12:51;;;;;;;;;;;;;;;29.67;56.44;101773.75;5014694;28;19917;-50
2022/08/24 11:15:17;;;;;;;;;;;;;;;29.79;55.70;101761.69;5017278;28;19924;-47
2022/08/24 11:17:53;;;;;;;;;;;;;;;30.08;52.17;101762.91;5025011;28;19912;-49
2022/08/24 11:20:31;;;;;;;;;;;;;;;30.53;51.22;101760.56;5033603;28;19905;-47
2022/08/24 11:23:04;;;;;;;;;;;;;;;31.01;51.24;101763.13;5021079;28;19909;-49
2022/08/24 11:25:31;;;;;;;;;;;;;;;31.44;48.58;101763.56;5015456;28;20711;-50
2022/08/24 11:28:19;;;;;;;;;;;;;;;31.70;48.07;101756.06;5019327;28;19971;-47
2022/08/24 11:30:44;;;;;;;;;;;;;;;31.80;47.96;101758.78;5018356;28;20698;-48
2022/08/24 11:33:28;;;;;;;;;;;;;;;31.99;45.52;101752.63;5019234;28;20064;-47
2022/08/24 11:35:53;;;;;;;;;;;;;;;31.91;47.87;101750.44;5017816;28;20035;-48
2022/08/24 11:38:29;;;;;;;;;;;;;;;31.62;44.91;101756.66;5018044;28;20003;-48
2022/08/24 11:41:05;;;;;;;;;;;;;;;31.38;48.42;101748.97;5019269;28;19975;-49
2022/08/24 11:43:30;;;;;;;;;;;;;;;31.30;48.39;101756.97;5019649;28;19948;-49
2022/08/24 11:46:05;;;;;;;;;;;;;;;31.14;45.87;101754.25;5017735;28;20014;-50
2022/08/24 11:48:36;;;;;;;;;;;;;;;30.95;46.74;101754.00;5019325;28;19917;-48
2022/08/24 11:51:07;;;;;;;;;;;;;;;31.15;48.04;101750.38;5019161;28;19916;-49
2022/08/24 11:53:39;;;;;;;;;;;;;;;31.30;50.28;101748.69;5017227;28;19909;-46
2022/08/24 11:56:04;;;;;;;;;;;;;;;31.41;50.32;101751.16;5017786;28;19909;-47
2022/08/24 11:58:46;;;;;;;;;;;;;;;31.46;46.38;101747.56;5019223;28;20135;-47
2022/08/24 12:01:22;;;;;;;;;;;;;;;31.44;49.47;101738.72;5016911;28;19913;-50
2022/08/24 12:04:06;;;;;;;;;;;;;;;31.60;49.75;101742.28;5018121;28;19961;-47
2022/08/24 12:06:34;;;;;;;;;;;;;;;31.98;51.56;101743.50;5018163;28;19912;-48
2022/08/24 12:08:59;;;;;;;;;;;;;;;32.40;48.96;101741.38;5017638;28;19913;-48
2022/08/24 12:11:31;;;;;;;;;;;;;;;32.67;46.63;101734.53;5020977;28;20035;-50
2022/08/24 12:14:20;;;;;;;;;;;;;;;32.83;49.01;101732.47;5035442;28;20146;-49
2022/08/24 12:17:03;;;;;;;;;;;;;;;32.94;44.76;101730.44;5013373;28;19928;-51
2022/08/24 12:19:28;;;;;;;;;;;;;;;32.94;47.06;101734.03;5018786;28;20171;-47
2022/08/24 12:21:56;;;;;;;;;;;;;;;32.97;49.21;101732.63;5017644;28;19975;-50
2022/08/24 12:24:24;;;;;;;;;;;;;;;32.77;48.71;101728.91;5017237;28;19909;-47
2022/08/24 12:26:52;;;;;;;;;;;;;;;32.56;49.76;101731.00;5049103;28;19925;-48
2022/08/24 12:29:31;;;;;;;;;;;;;;;32.37;49.41;101727.25;5018099;28;19955;-47
2022/08/24 12:31:56;;;;;;;;;;;;;;;32.17;47.92;101729.06;5017579;28;20386;-50
2022/08/24 12:34:36;;;;;;;;;;;;;;;32.20;47.40;101736.78;5017371;28;19909;-48
2022/08/24 12:37:07;;;;;;;;;;;;;;;32.45;49.29;101729.41;5017678;28;19916;-49
2022/08/24 12:39:37;;;;;;;;;;;;;;;32.81;49.92;101734.69;5017020;28;19909;-51
2022/08/24 12:42:26;;;;;;;;;;;;;;;33.16;45.33;101727.19;5017328;28;19956;-49
2022/08/24 12:44:53;;;;;;;;;;;;;;;33.38;47.86;101729.44;5015438;28;20371;-50
2022/08/24 12:47:22;;;;;;;;;;;;;;;33.57;48.23;101729.50;5016835;28;20389;-49
2022/08/24 12:49:51;;;;;;;;;;;;;;;33.52;41.56;101724.03;5016857;28;19962;-48